createdAt,value
2022-07-26T00:00:10.001Z,95.54
2022-07-26T00:01:10.086Z,95.28
2022-07-26T00:02:10.893Z,95.48
2022-07-26T00:03:10.965Z,95.48
2022-07-26T00:04:09.959Z,95.68
2022-07-26T00:05:09.951Z,95.58
2022-07-26T00:06:09.967Z,95.68
2022-07-26T00:07:09.939Z,95.68
2022-07-26T00:08:09.932Z,95.58
2022-07-26T00:09:10.352Z,95.68
2022-07-26T00:10:10.916Z,95.78
2022-07-26T00:11:09.940Z,95.48
2022-07-26T00:12:09.899Z,96.80
2022-07-26T00:13:09.899Z,96.89
2022-07-26T00:14:09.888Z,95.78
2022-07-26T00:15:09.879Z,95.68
2022-07-26T00:16:09.968Z,95.48
2022-07-26T00:17:09.868Z,95.68
2022-07-26T00:18:11.897Z,96.03
2022-07-26T00:19:10.369Z,96.03
2022-07-26T00:20:09.848Z,96.34
2022-07-26T00:21:10.023Z,96.23
2022-07-26T00:22:09.835Z,96.44
2022-07-26T00:23:09.826Z,96.34
2022-07-26T00:24:09.820Z,96.54
2022-07-26T00:25:09.815Z,96.03
2022-07-26T00:26:09.810Z,96.54
2022-07-26T00:27:09.825Z,96.84
2022-07-26T00:28:09.797Z,96.84
2022-07-26T00:29:10.050Z,96.44
2022-07-26T00:30:09.772Z,96.18
2022-07-26T00:31:09.789Z,96.54
2022-07-26T00:32:09.786Z,96.54
2022-07-26T00:33:09.749Z,96.78
2022-07-26T00:34:09.740Z,96.54
2022-07-26T00:35:09.739Z,96.54
2022-07-26T00:36:09.730Z,96.44
2022-07-26T00:37:09.755Z,95.57
2022-07-26T00:38:09.711Z,95.51
2022-07-26T00:39:10.029Z,95.66
2022-07-26T00:40:09.695Z,96.17
2022-07-26T00:41:09.694Z,96.56
2022-07-26T00:42:09.714Z,97.27
2022-07-26T00:43:09.674Z,98.34
2022-07-26T00:44:09.669Z,98.39
2022-07-26T00:45:09.664Z,98.49
2022-07-26T00:46:09.752Z,98.03
2022-07-26T00:47:09.668Z,98.34
2022-07-26T00:48:09.643Z,98.34
2022-07-26T00:49:10.019Z,98.44
2022-07-26T00:50:09.622Z,98.54
2022-07-26T00:51:09.617Z,98.60
2022-07-26T00:52:09.634Z,98.19
2022-07-26T00:53:09.603Z,97.89
2022-07-26T00:54:09.599Z,98.29
2022-07-26T00:55:09.589Z,98.09
2022-07-26T00:56:09.584Z,98.29
2022-07-26T00:57:09.595Z,98.24
2022-07-26T00:58:09.565Z,98.50
2022-07-26T00:59:10.036Z,97.89
2022-07-26T01:00:09.552Z,97.49
2022-07-26T01:01:09.603Z,97.43
2022-07-26T01:02:09.618Z,96.87
2022-07-26T01:03:09.525Z,97.58
2022-07-26T01:04:09.929Z,98.24
2022-07-26T01:05:09.513Z,99.15
2022-07-26T01:06:09.509Z,98.65
2022-07-26T01:07:14.745Z,98.54
2022-07-26T01:08:10.490Z,97.94
2022-07-26T01:09:09.482Z,98.44
2022-07-26T01:10:09.477Z,98.44
2022-07-26T01:11:09.467Z,98.44
2022-07-26T01:12:09.488Z,98.65
2022-07-26T01:13:09.458Z,98.14
2022-07-26T01:14:09.813Z,98.29
2022-07-26T01:15:42.150Z,98.44
2022-07-26T01:16:09.485Z,98.34
2022-07-26T01:17:09.458Z,98.14
2022-07-26T01:18:09.414Z,98.24
2022-07-26T01:19:09.414Z,98.29
2022-07-26T01:20:09.405Z,98.34
2022-07-26T01:21:13.441Z,97.94
2022-07-26T01:22:14.127Z,97.99
2022-07-26T01:23:11.388Z,98.03
2022-07-26T01:24:09.752Z,97.63
2022-07-26T01:25:09.359Z,97.53
2022-07-26T01:26:09.357Z,97.63
2022-07-26T01:27:09.373Z,97.58
2022-07-26T01:28:09.339Z,97.53
2022-07-26T01:29:09.339Z,97.63
2022-07-26T01:30:09.329Z,98.29
2022-07-26T01:31:09.346Z,97.89
2022-07-26T01:32:09.334Z,97.94
2022-07-26T01:33:09.307Z,97.58
2022-07-26T01:34:09.725Z,98.14
2022-07-26T01:35:09.306Z,98.14
2022-07-26T01:36:09.275Z,98.03
2022-07-26T01:37:09.298Z,98.24
2022-07-26T01:38:09.274Z,98.03
2022-07-26T01:39:09.255Z,98.19
2022-07-26T01:40:09.274Z,97.79
2022-07-26T01:41:09.243Z,96.92
2022-07-26T01:42:09.261Z,97.23
2022-07-26T01:43:09.229Z,97.53
2022-07-26T01:44:09.472Z,96.66
2022-07-26T01:45:09.231Z,96.56
2022-07-26T01:46:09.242Z,96.56
2022-07-26T01:47:09.220Z,96.77
2022-07-26T01:48:09.193Z,96.46
2022-07-26T01:49:09.281Z,97.47
2022-07-26T01:50:09.166Z,97.88
2022-07-26T01:51:09.160Z,98.08
2022-07-26T01:52:09.190Z,97.47
2022-07-26T01:53:09.152Z,97.53
2022-07-26T01:54:09.658Z,97.17
2022-07-26T01:55:09.141Z,97.83
2022-07-26T01:56:09.139Z,97.94
2022-07-26T01:57:09.156Z,98.18
2022-07-26T01:58:09.125Z,98.34
2022-07-26T01:59:09.111Z,97.88
2022-07-26T02:00:09.101Z,97.58
2022-07-26T02:01:09.122Z,98.28
2022-07-26T02:02:09.239Z,98.49
2022-07-26T02:03:09.157Z,98.08
2022-07-26T02:04:09.470Z,98.54
2022-07-26T02:05:09.066Z,98.69
2022-07-26T02:06:09.059Z,99.55
2022-07-26T02:07:13.110Z,99.15
2022-07-26T02:08:10.041Z,99.46
2022-07-26T02:09:11.576Z,98.29
2022-07-26T02:10:09.030Z,98.39
2022-07-26T02:11:09.019Z,98.09
2022-07-26T02:12:09.034Z,97.99
2022-07-26T02:13:09.003Z,98.39
2022-07-26T02:14:09.361Z,98.19
2022-07-26T02:15:09.985Z,97.79
2022-07-26T02:16:09.020Z,97.38
2022-07-26T02:17:08.994Z,97.28
2022-07-26T02:18:08.972Z,96.98
2022-07-26T02:19:08.961Z,97.49
2022-07-26T02:20:08.948Z,97.28
2022-07-26T02:21:08.950Z,97.28
2022-07-26T02:22:08.958Z,97.49
2022-07-26T02:23:08.927Z,97.24
2022-07-26T02:24:09.294Z,97.18
2022-07-26T02:25:08.909Z,98.24
2022-07-26T02:26:08.903Z,98.09
2022-07-26T02:27:08.940Z,97.89
2022-07-26T02:28:08.888Z,97.89
2022-07-26T02:29:08.881Z,97.49
2022-07-26T02:30:08.872Z,97.38
2022-07-26T02:31:08.925Z,96.98
2022-07-26T02:32:08.887Z,96.98
2022-07-26T02:33:08.856Z,97.08
2022-07-26T02:34:09.448Z,97.03
2022-07-26T02:35:08.834Z,96.88
2022-07-26T02:36:08.832Z,96.93
2022-07-26T02:37:08.848Z,96.63
2022-07-26T02:38:08.810Z,97.54
2022-07-26T02:39:08.812Z,95.51
2022-07-26T02:40:08.797Z,94.65
2022-07-26T02:41:08.791Z,94.75
2022-07-26T02:42:08.812Z,95.15
2022-07-26T02:43:08.776Z,94.55
2022-07-26T02:44:09.099Z,94.29
2022-07-26T02:45:08.758Z,94.19
2022-07-26T02:46:08.796Z,94.90
2022-07-26T02:47:08.742Z,94.90
2022-07-26T02:48:08.763Z,95.55
2022-07-26T02:49:08.801Z,95.61
2022-07-26T02:50:08.721Z,95.81
2022-07-26T02:51:08.717Z,95.81
2022-07-26T02:52:08.708Z,96.72
2022-07-26T02:53:08.727Z,96.82
2022-07-26T02:54:09.127Z,96.72
2022-07-26T02:55:08.679Z,96.42
2022-07-26T02:56:08.688Z,95.97
2022-07-26T02:57:08.683Z,95.56
2022-07-26T02:58:08.689Z,96.47
2022-07-26T02:59:08.659Z,96.37
2022-07-26T03:00:08.650Z,95.76
2022-07-26T03:01:08.691Z,95.66
2022-07-26T03:02:08.688Z,96.07
2022-07-26T03:03:08.694Z,96.17
2022-07-26T03:04:08.945Z,96.78
2022-07-26T03:05:08.618Z,96.17
2022-07-26T03:06:08.611Z,96.37
2022-07-26T03:07:08.597Z,96.37
2022-07-26T03:08:08.618Z,95.66
2022-07-26T03:09:08.583Z,96.78
2022-07-26T03:10:08.577Z,96.57
2022-07-26T03:11:12.009Z,96.57
2022-07-26T03:12:09.560Z,96.17
2022-07-26T03:13:08.578Z,96.37
2022-07-26T03:14:09.146Z,96.27
2022-07-26T03:15:08.540Z,95.50
2022-07-26T03:16:08.637Z,96.27
2022-07-26T03:17:08.525Z,96.07
2022-07-26T03:18:08.545Z,96.07
2022-07-26T03:19:08.549Z,95.97
2022-07-26T03:20:08.502Z,95.76
2022-07-26T03:21:08.491Z,95.97
2022-07-26T03:22:08.483Z,95.71
2022-07-26T03:23:08.502Z,96.42
2022-07-26T03:24:08.894Z,96.31
2022-07-26T03:25:08.460Z,96.51
2022-07-26T03:26:08.453Z,96.51
2022-07-26T03:27:08.444Z,96.62
2022-07-26T03:28:08.465Z,96.62
2022-07-26T03:29:08.481Z,96.51
2022-07-26T03:30:08.421Z,96.87
2022-07-26T03:31:08.481Z,96.87
2022-07-26T03:32:08.410Z,97.07
2022-07-26T03:33:08.431Z,95.35
2022-07-26T03:34:08.858Z,95.55
2022-07-26T03:35:08.386Z,94.64
2022-07-26T03:36:11.605Z,95.65
2022-07-26T03:37:09.368Z,96.56
2022-07-26T03:38:08.386Z,95.95
2022-07-26T03:39:08.357Z,96.36
2022-07-26T03:40:08.348Z,96.71
2022-07-26T03:41:08.342Z,96.87
2022-07-26T03:42:08.333Z,97.42
2022-07-26T03:43:08.360Z,97.32
2022-07-26T03:44:08.721Z,97.22
2022-07-26T03:45:08.308Z,97.42
2022-07-26T03:46:08.369Z,97.22
2022-07-26T03:47:08.301Z,97.83
2022-07-26T03:48:08.316Z,97.92
2022-07-26T03:49:10.977Z,98.43
2022-07-26T03:50:09.272Z,98.33
2022-07-26T03:51:08.267Z,98.23
2022-07-26T03:52:08.257Z,98.13
2022-07-26T03:53:08.285Z,97.88
2022-07-26T03:54:08.530Z,98.18
2022-07-26T03:55:08.241Z,97.58
2022-07-26T03:56:08.227Z,97.62
2022-07-26T03:57:08.217Z,97.52
2022-07-26T03:58:08.236Z,97.11
2022-07-26T03:59:08.207Z,97.17
2022-07-26T04:00:08.198Z,97.27
2022-07-26T04:01:08.315Z,97.47
2022-07-26T04:02:08.278Z,96.87
2022-07-26T04:03:08.199Z,96.97
2022-07-26T04:04:09.085Z,96.87
2022-07-26T04:05:08.159Z,97.58
2022-07-26T04:06:08.147Z,97.52
2022-07-26T04:07:08.136Z,97.58
2022-07-26T04:08:08.156Z,97.47
2022-07-26T04:09:08.185Z,97.47
2022-07-26T04:10:08.124Z,96.87
2022-07-26T04:11:08.111Z,97.47
2022-07-26T04:12:08.121Z,97.07
2022-07-26T04:13:08.128Z,96.97
2022-07-26T04:14:08.537Z,97.38
2022-07-26T04:15:08.083Z,96.87
2022-07-26T04:16:08.077Z,96.66
2022-07-26T04:17:08.133Z,96.56
2022-07-26T04:18:08.087Z,96.66
2022-07-26T04:19:08.052Z,96.66
2022-07-26T04:20:08.053Z,96.97
2022-07-26T04:21:08.038Z,96.22
2022-07-26T04:22:08.027Z,96.31
2022-07-26T04:23:11.438Z,94.81
2022-07-26T04:24:08.332Z,92.90
2022-07-26T04:25:08.016Z,91.50
2022-07-26T04:26:07.999Z,89.23
2022-07-26T04:27:08.000Z,88.39
2022-07-26T04:28:08.012Z,87.23
2022-07-26T04:29:07.977Z,87.09
2022-07-26T04:30:14.069Z,85.58
2022-07-26T04:31:10.037Z,84.83
2022-07-26T04:32:07.951Z,84.74
2022-07-26T04:33:07.981Z,84.88
2022-07-26T04:34:08.304Z,86.13
2022-07-26T04:35:07.936Z,86.67
2022-07-26T04:36:07.924Z,86.87
2022-07-26T04:37:07.917Z,87.68
2022-07-26T04:38:07.931Z,87.43
2022-07-26T04:39:07.906Z,86.18
2022-07-26T04:40:07.887Z,84.83
2022-07-26T04:41:07.889Z,83.48
2022-07-26T04:42:07.881Z,82.74
2022-07-26T04:43:08.555Z,81.76
2022-07-26T04:44:08.206Z,81.15
2022-07-26T04:45:08.723Z,80.11
2022-07-26T04:46:08.934Z,79.27
2022-07-26T04:47:07.831Z,78.36
2022-07-26T04:48:07.850Z,77.28
2022-07-26T04:49:07.910Z,76.85
2022-07-26T04:50:07.813Z,75.78
2022-07-26T04:51:07.804Z,75.98
2022-07-26T04:52:07.801Z,75.91
2022-07-26T04:53:08.098Z,75.01
2022-07-26T04:54:08.055Z,74.60
2022-07-26T04:55:07.773Z,74.90
2022-07-26T04:56:07.775Z,74.87
2022-07-26T04:57:07.762Z,73.63
2022-07-26T04:58:07.966Z,72.63
2022-07-26T04:59:07.757Z,73.10
2022-07-26T05:00:21.215Z,72.39
2022-07-26T05:01:10.946Z,71.80
2022-07-26T05:02:08.908Z,71.73
2022-07-26T05:03:07.931Z,70.23
2022-07-26T05:04:07.896Z,70.43
2022-07-26T05:05:07.701Z,70.43
2022-07-26T05:06:07.706Z,70.23
2022-07-26T05:07:07.688Z,70.43
2022-07-26T05:08:07.960Z,69.66
2022-07-26T05:09:07.683Z,67.93
2022-07-26T05:10:07.670Z,67.26
2022-07-26T05:11:07.663Z,67.90
2022-07-26T05:12:07.652Z,66.83
2022-07-26T05:13:07.699Z,65.41
2022-07-26T05:14:07.979Z,65.01
2022-07-26T05:15:13.613Z,65.53
2022-07-26T05:16:12.051Z,65.01
2022-07-26T05:17:09.075Z,64.81
2022-07-26T05:18:08.106Z,64.48
2022-07-26T05:19:07.609Z,64.58
2022-07-26T05:20:07.595Z,64.44
2022-07-26T05:21:07.589Z,65.31
2022-07-26T05:22:07.584Z,65.23
2022-07-26T05:23:07.610Z,65.17
2022-07-26T05:24:08.064Z,64.48
2022-07-26T05:25:07.703Z,64.54
2022-07-26T05:26:07.552Z,65.44
2022-07-26T05:27:07.552Z,64.90
2022-07-26T05:28:07.571Z,64.61
2022-07-26T05:29:07.535Z,64.67
2022-07-26T05:30:07.582Z,62.95
2022-07-26T05:31:07.622Z,62.52
2022-07-26T05:32:07.515Z,62.59
2022-07-26T05:33:07.536Z,61.90
2022-07-26T05:34:07.807Z,62.35
2022-07-26T05:35:07.488Z,62.35
2022-07-26T05:36:07.479Z,62.02
2022-07-26T05:37:07.477Z,62.23
2022-07-26T05:38:07.476Z,61.80
2022-07-26T05:39:08.940Z,61.50
2022-07-26T05:40:07.457Z,60.40
2022-07-26T05:41:07.455Z,60.60
2022-07-26T05:42:07.439Z,60.11
2022-07-26T05:43:07.440Z,60.40
2022-07-26T05:44:07.725Z,61.30
2022-07-26T05:45:07.419Z,59.98
2022-07-26T05:46:09.747Z,58.45
2022-07-26T05:47:08.413Z,59.15
2022-07-26T05:48:07.426Z,60.05
2022-07-26T05:49:07.414Z,59.62
2022-07-26T05:50:07.381Z,58.40
2022-07-26T05:51:07.374Z,58.50
2022-07-26T05:52:07.374Z,58.87
2022-07-26T05:53:07.462Z,57.38
2022-07-26T05:54:07.743Z,57.38
2022-07-26T05:55:07.370Z,57.18
2022-07-26T05:56:07.369Z,57.34
2022-07-26T05:57:07.336Z,58.16
2022-07-26T05:58:07.327Z,59.08
2022-07-26T05:59:07.347Z,59.18
2022-07-26T06:00:07.317Z,59.31
2022-07-26T06:01:07.305Z,61.60
2022-07-26T06:02:07.320Z,61.27
2022-07-26T06:03:07.285Z,59.88
2022-07-26T06:04:07.585Z,59.58
2022-07-26T06:05:07.281Z,60.13
2022-07-26T06:06:07.278Z,60.96
2022-07-26T06:07:07.277Z,62.35
2022-07-26T06:08:07.250Z,60.36
2022-07-26T06:09:07.277Z,61.39
2022-07-26T06:10:07.239Z,62.08
2022-07-26T06:11:07.234Z,63.81
2022-07-26T06:12:07.223Z,63.87
2022-07-26T06:13:07.227Z,63.57
2022-07-26T06:14:07.239Z,62.67
2022-07-26T06:15:14.702Z,63.60
2022-07-26T06:16:08.195Z,64.00
2022-07-26T06:17:07.259Z,64.30
2022-07-26T06:18:07.182Z,64.10
2022-07-26T06:19:07.198Z,64.30
2022-07-26T06:20:07.163Z,63.37
2022-07-26T06:21:07.152Z,65.40
2022-07-26T06:22:07.149Z,63.97
2022-07-26T06:23:07.146Z,63.80
2022-07-26T06:24:07.413Z,63.00
2022-07-26T06:25:07.130Z,64.63
2022-07-26T06:26:07.121Z,65.00
2022-07-26T06:27:07.124Z,65.30
2022-07-26T06:28:07.106Z,64.70
2022-07-26T06:29:07.132Z,63.10
2022-07-26T06:30:07.087Z,64.86
2022-07-26T06:31:07.118Z,65.26
2022-07-26T06:32:07.118Z,66.29
2022-07-26T06:33:07.066Z,64.92
2022-07-26T06:34:07.431Z,66.93
2022-07-26T06:35:07.052Z,66.19
2022-07-26T06:36:08.833Z,66.99
2022-07-26T06:37:07.043Z,66.72
2022-07-26T06:38:07.038Z,68.32
2022-07-26T06:39:07.045Z,68.62
2022-07-26T06:40:07.007Z,67.49
2022-07-26T06:41:07.006Z,67.72
2022-07-26T06:42:06.996Z,68.26
2022-07-26T06:43:07.004Z,68.05
2022-07-26T06:44:07.307Z,67.72
2022-07-26T06:45:06.983Z,67.62
2022-07-26T06:46:07.038Z,66.42
2022-07-26T06:47:06.953Z,67.52
2022-07-26T06:48:06.952Z,67.76
2022-07-26T06:49:07.115Z,68.96
2022-07-26T06:50:06.941Z,68.15
2022-07-26T06:51:06.923Z,68.05
2022-07-26T06:52:06.922Z,68.42
2022-07-26T06:53:06.909Z,66.78
2022-07-26T06:54:07.237Z,66.49
2022-07-26T06:55:06.897Z,66.22
2022-07-26T06:56:06.888Z,67.63
2022-07-26T06:57:06.877Z,65.12
2022-07-26T06:58:06.875Z,66.39
2022-07-26T06:59:09.504Z,64.76
2022-07-26T07:00:07.853Z,64.86
2022-07-26T07:01:06.916Z,65.29
2022-07-26T07:02:06.851Z,64.72
2022-07-26T07:03:06.833Z,66.09
2022-07-26T07:04:07.189Z,66.52
2022-07-26T07:05:06.925Z,67.05
2022-07-26T07:06:06.819Z,68.35
2022-07-26T07:07:06.799Z,69.02
2022-07-26T07:08:07.277Z,66.78
2022-07-26T07:09:06.821Z,65.95
2022-07-26T07:10:06.779Z,66.22
2022-07-26T07:11:06.774Z,66.39
2022-07-26T07:12:10.416Z,66.99
2022-07-26T07:13:07.755Z,63.43
2022-07-26T07:14:07.190Z,63.53
2022-07-26T07:15:06.738Z,65.50
2022-07-26T07:16:39.344Z,63.80
2022-07-26T07:17:11.106Z,62.20
2022-07-26T07:18:07.714Z,62.30
2022-07-26T07:19:06.710Z,62.20
2022-07-26T07:20:06.732Z,63.33
2022-07-26T07:21:06.691Z,64.63
2022-07-26T07:22:06.685Z,64.56
2022-07-26T07:23:06.674Z,64.53
2022-07-26T07:24:06.998Z,63.13
2022-07-26T07:25:06.674Z,63.13
2022-07-26T07:26:06.659Z,63.33
2022-07-26T07:27:06.697Z,62.70
2022-07-26T07:28:06.633Z,63.20
2022-07-26T07:29:06.628Z,62.77
2022-07-26T07:30:06.647Z,62.37
2022-07-26T07:31:06.697Z,63.07
2022-07-26T07:32:06.639Z,61.68
2022-07-26T07:33:07.599Z,61.87
2022-07-26T07:34:06.946Z,62.45
2022-07-26T07:35:08.051Z,62.87
2022-07-26T07:36:07.583Z,63.20
2022-07-26T07:37:06.570Z,63.04
2022-07-26T07:38:06.551Z,61.74
2022-07-26T07:39:11.137Z,62.84
2022-07-26T07:40:08.578Z,62.91
2022-07-26T07:41:06.536Z,62.61
2022-07-26T07:42:06.536Z,61.99
2022-07-26T07:43:06.525Z,63.08
2022-07-26T07:44:06.743Z,62.29
2022-07-26T07:45:06.528Z,60.66
2022-07-26T07:46:06.506Z,59.59
2022-07-26T07:47:06.566Z,59.82
2022-07-26T07:48:06.489Z,59.72
2022-07-26T07:49:06.818Z,61.58
2022-07-26T07:50:06.498Z,59.66
2022-07-26T07:51:06.469Z,59.77
2022-07-26T07:52:06.458Z,59.96
2022-07-26T07:53:06.452Z,59.27
2022-07-26T07:54:06.469Z,58.87
2022-07-26T07:55:36.355Z,58.91
2022-07-26T07:56:08.431Z,59.70
2022-07-26T07:57:06.421Z,58.14
2022-07-26T07:58:06.415Z,58.17
2022-07-26T07:59:06.791Z,58.57
2022-07-26T08:00:06.442Z,59.86
2022-07-26T08:01:06.472Z,60.03
2022-07-26T08:02:06.389Z,58.27
2022-07-26T08:03:06.393Z,60.09
2022-07-26T08:04:06.448Z,59.39
2022-07-26T08:05:13.956Z,59.19
2022-07-26T08:06:07.349Z,60.12
2022-07-26T08:07:06.350Z,60.29
2022-07-26T08:08:06.347Z,58.54
2022-07-26T08:09:06.684Z,58.31
2022-07-26T08:10:06.356Z,57.82
2022-07-26T08:11:07.796Z,58.34
2022-07-26T08:12:06.309Z,58.97
2022-07-26T08:13:06.303Z,58.20
2022-07-26T08:14:06.303Z,58.59
2022-07-26T08:15:07.497Z,59.79
2022-07-26T08:16:06.342Z,60.19
2022-07-26T08:17:06.276Z,60.52
2022-07-26T08:18:06.544Z,59.85
2022-07-26T08:19:06.258Z,60.41
2022-07-26T08:20:06.289Z,62.10
2022-07-26T08:21:06.241Z,61.10
2022-07-26T08:22:06.241Z,60.80
2022-07-26T08:23:06.241Z,61.57
2022-07-26T08:24:06.218Z,60.45
2022-07-26T08:25:06.237Z,60.09
2022-07-26T08:26:06.938Z,59.66
2022-07-26T08:27:07.201Z,57.32
2022-07-26T08:28:09.249Z,57.19
2022-07-26T08:29:07.182Z,56.70
2022-07-26T08:30:06.198Z,58.06
2022-07-26T08:31:06.180Z,56.47
2022-07-26T08:32:06.245Z,55.97
2022-07-26T08:33:06.148Z,55.70
2022-07-26T08:34:06.151Z,57.36
2022-07-26T08:35:17.686Z,57.31
2022-07-26T08:36:07.135Z,55.89
2022-07-26T08:37:18.806Z,53.61
2022-07-26T08:38:08.117Z,54.00
2022-07-26T08:39:06.416Z,53.11
2022-07-26T08:40:06.123Z,54.28
2022-07-26T08:41:06.103Z,52.59
2022-07-26T08:42:06.087Z,53.44
2022-07-26T08:43:06.076Z,54.72
2022-07-26T08:44:06.064Z,54.65
2022-07-26T08:45:06.102Z,55.08
2022-07-26T08:46:06.055Z,55.35
2022-07-26T08:47:06.083Z,54.78
2022-07-26T08:48:19.449Z,56.17
2022-07-26T08:49:08.297Z,55.10
2022-07-26T08:50:06.047Z,55.95
2022-07-26T08:51:06.010Z,57.97
2022-07-26T08:52:07.007Z,57.05
2022-07-26T08:53:06.004Z,57.35
2022-07-26T08:54:06.350Z,56.62
2022-07-26T08:55:07.015Z,55.40
2022-07-26T08:56:07.482Z,55.10
2022-07-26T08:57:06.960Z,55.03
2022-07-26T08:58:05.955Z,56.15
2022-07-26T08:59:06.276Z,55.93
2022-07-26T09:00:05.977Z,55.33
2022-07-26T09:01:05.988Z,55.65
2022-07-26T09:02:05.923Z,57.45
2022-07-26T09:03:05.917Z,57.32
2022-07-26T09:04:05.955Z,55.76
2022-07-26T09:05:05.929Z,57.30
2022-07-26T09:06:05.893Z,57.56
2022-07-26T09:07:05.891Z,59.08
2022-07-26T09:08:05.881Z,60.05
2022-07-26T09:09:06.158Z,59.72
2022-07-26T09:10:05.871Z,58.72
2022-07-26T09:11:05.888Z,57.56
2022-07-26T09:12:05.850Z,59.11
2022-07-26T09:13:05.841Z,61.51
2022-07-26T09:14:05.839Z,60.28
2022-07-26T09:15:05.854Z,59.78
2022-07-26T09:16:05.857Z,59.78
2022-07-26T09:17:05.805Z,60.80
2022-07-26T09:18:05.810Z,60.53
2022-07-26T09:19:06.018Z,61.04
2022-07-26T09:20:05.794Z,61.04
2022-07-26T09:21:05.805Z,61.66
2022-07-26T09:22:10.087Z,60.96
2022-07-26T09:23:06.785Z,61.76
2022-07-26T09:24:05.754Z,61.96
2022-07-26T09:25:05.748Z,62.37
2022-07-26T09:26:05.770Z,62.66
2022-07-26T09:27:05.733Z,62.39
2022-07-26T09:28:05.727Z,63.09
2022-07-26T09:29:06.056Z,62.46
2022-07-26T09:30:05.708Z,62.23
2022-07-26T09:31:05.784Z,61.93
2022-07-26T09:32:05.689Z,62.01
2022-07-26T09:33:06.688Z,61.80
2022-07-26T09:34:05.957Z,60.71
2022-07-26T09:35:24.208Z,61.41
2022-07-26T09:36:07.683Z,60.91
2022-07-26T09:37:11.568Z,61.47
2022-07-26T09:38:07.642Z,61.08
2022-07-26T09:39:05.973Z,60.17
2022-07-26T09:40:05.634Z,61.65
2022-07-26T09:41:05.652Z,59.75
2022-07-26T09:42:26.692Z,60.02
2022-07-26T09:43:07.617Z,58.92
2022-07-26T09:44:05.605Z,59.00
2022-07-26T09:45:05.595Z,59.72
2022-07-26T09:46:05.755Z,59.82
2022-07-26T09:47:05.598Z,59.02
2022-07-26T09:48:05.578Z,59.62
2022-07-26T09:49:11.023Z,59.62
2022-07-26T09:50:11.209Z,58.83
2022-07-26T09:51:05.578Z,58.50
2022-07-26T09:52:05.553Z,59.96
2022-07-26T09:53:05.536Z,58.47
2022-07-26T09:54:05.539Z,58.17
2022-07-26T09:55:05.528Z,58.70
2022-07-26T09:56:05.550Z,59.62
2022-07-26T09:57:05.510Z,60.12
2022-07-26T09:58:05.505Z,59.69
2022-07-26T09:59:05.505Z,59.30
2022-07-26T10:00:05.488Z,58.20
2022-07-26T10:01:05.512Z,58.87
2022-07-26T10:02:05.508Z,57.97
2022-07-26T10:03:05.550Z,58.17
2022-07-26T10:04:05.465Z,57.47
2022-07-26T10:05:05.452Z,56.98
2022-07-26T10:06:05.469Z,57.20
2022-07-26T10:07:05.439Z,58.03
2022-07-26T10:08:05.432Z,59.09
2022-07-26T10:09:05.417Z,58.40
2022-07-26T10:10:05.418Z,58.40
2022-07-26T10:11:05.428Z,58.20
2022-07-26T10:12:05.408Z,58.29
2022-07-26T10:13:05.391Z,58.40
2022-07-26T10:14:05.378Z,57.50
2022-07-26T10:15:05.375Z,58.62
2022-07-26T10:16:05.452Z,57.53
2022-07-26T10:17:05.731Z,58.45
2022-07-26T10:18:05.350Z,58.65
2022-07-26T10:19:05.339Z,57.46
2022-07-26T10:20:10.668Z,58.65
2022-07-26T10:21:06.350Z,58.58
2022-07-26T10:22:05.320Z,59.51
2022-07-26T10:23:05.312Z,58.88
2022-07-26T10:24:05.303Z,58.91
2022-07-26T10:25:05.295Z,59.18
2022-07-26T10:26:05.312Z,58.98
2022-07-26T10:27:05.278Z,58.78
2022-07-26T10:28:11.771Z,58.98
2022-07-26T10:29:06.258Z,59.08
2022-07-26T10:30:05.255Z,58.48
2022-07-26T10:31:05.324Z,58.58
2022-07-26T10:32:05.248Z,58.88
2022-07-26T10:33:05.226Z,58.45
2022-07-26T10:34:06.376Z,57.33
2022-07-26T10:35:05.215Z,57.09
2022-07-26T10:36:05.242Z,57.51
2022-07-26T10:37:05.201Z,59.11
2022-07-26T10:38:05.204Z,58.81
2022-07-26T10:39:05.187Z,58.81
2022-07-26T10:40:05.176Z,59.41
2022-07-26T10:41:05.171Z,59.38
2022-07-26T10:42:05.191Z,59.35
2022-07-26T10:43:30.102Z,58.65
2022-07-26T10:44:07.439Z,58.72
2022-07-26T10:45:05.145Z,58.72
2022-07-26T10:46:05.171Z,58.53
2022-07-26T10:47:05.147Z,58.25
2022-07-26T10:48:05.127Z,59.35
2022-07-26T10:49:05.215Z,59.28
2022-07-26T10:50:06.106Z,59.25
2022-07-26T10:51:06.459Z,58.98
2022-07-26T10:52:06.124Z,58.78
2022-07-26T10:53:05.084Z,58.68
2022-07-26T10:54:05.078Z,59.38
2022-07-26T10:55:05.072Z,59.51
2022-07-26T10:56:05.062Z,60.14
2022-07-26T10:57:05.089Z,60.63
2022-07-26T10:58:05.055Z,59.94
2022-07-26T10:59:05.040Z,61.33
2022-07-26T11:00:05.029Z,60.83
2022-07-26T11:01:05.035Z,60.21
2022-07-26T11:02:05.098Z,60.41
2022-07-26T11:03:05.068Z,59.81
2022-07-26T11:04:05.012Z,59.94
2022-07-26T11:05:05.001Z,60.03
2022-07-26T11:06:04.991Z,61.04
2022-07-26T11:07:05.010Z,61.80
2022-07-26T11:08:04.995Z,59.83
2022-07-26T11:09:04.967Z,60.83
2022-07-26T11:10:04.957Z,60.91
2022-07-26T11:11:04.943Z,61.21
2022-07-26T11:12:05.971Z,59.88
2022-07-26T11:13:04.942Z,60.28
2022-07-26T11:14:04.927Z,59.98
2022-07-26T11:15:04.923Z,59.38
2022-07-26T11:16:05.007Z,59.98
2022-07-26T11:17:04.937Z,59.98
2022-07-26T11:18:04.896Z,60.45
2022-07-26T11:19:04.888Z,59.85
2022-07-26T11:20:04.878Z,60.05
2022-07-26T11:21:04.871Z,60.02
2022-07-26T11:22:04.885Z,59.42
2022-07-26T11:23:04.859Z,58.62
2022-07-26T11:24:04.842Z,58.70
2022-07-26T11:25:04.856Z,58.59
2022-07-26T11:26:04.833Z,59.30
2022-07-26T11:27:04.850Z,57.50
2022-07-26T11:28:07.129Z,59.09
2022-07-26T11:29:06.319Z,59.00
2022-07-26T11:30:04.884Z,59.17
2022-07-26T11:31:04.846Z,58.07
2022-07-26T11:32:13.001Z,58.44
2022-07-26T11:33:06.778Z,58.54
2022-07-26T11:34:04.799Z,57.62
2022-07-26T11:35:04.777Z,57.12
2022-07-26T11:36:04.757Z,57.52
2022-07-26T11:37:04.777Z,58.24
2022-07-26T11:38:11.825Z,58.14
2022-07-26T11:39:06.735Z,58.54
2022-07-26T11:40:04.737Z,57.35
2022-07-26T11:41:04.717Z,57.64
2022-07-26T11:42:04.732Z,57.15
2022-07-26T11:43:04.715Z,57.77
2022-07-26T11:44:04.692Z,58.57
2022-07-26T11:45:04.687Z,58.24
2022-07-26T11:46:04.720Z,58.04
2022-07-26T11:47:04.702Z,57.22
2022-07-26T11:48:04.663Z,57.37
2022-07-26T11:49:04.686Z,58.07
2022-07-26T11:50:18.400Z,57.57
2022-07-26T11:51:07.033Z,58.37
2022-07-26T11:52:04.638Z,58.57
2022-07-26T11:53:04.653Z,58.97
2022-07-26T11:54:04.629Z,58.97
2022-07-26T11:55:04.610Z,58.47
2022-07-26T11:56:04.597Z,57.77
2022-07-26T11:57:04.596Z,58.17
2022-07-26T11:58:04.619Z,58.07
2022-07-26T11:59:04.581Z,58.40
2022-07-26T12:00:04.582Z,59.69
2022-07-26T12:01:04.568Z,58.80
2022-07-26T12:02:04.556Z,59.09
2022-07-26T12:03:04.603Z,58.59
2022-07-26T12:04:04.633Z,58.97
2022-07-26T12:05:04.664Z,57.07
2022-07-26T12:06:04.525Z,57.40
2022-07-26T12:07:04.520Z,58.40
2022-07-26T12:08:04.778Z,58.67
2022-07-26T12:09:04.524Z,58.24
2022-07-26T12:10:04.549Z,58.04
2022-07-26T12:11:04.496Z,58.24
2022-07-26T12:12:04.481Z,57.71
2022-07-26T12:13:04.506Z,57.32
2022-07-26T12:14:04.464Z,57.32
2022-07-26T12:15:04.484Z,58.28
2022-07-26T12:16:04.485Z,57.99
2022-07-26T12:17:04.447Z,58.58
2022-07-26T12:18:04.467Z,57.59
2022-07-26T12:19:04.435Z,57.69
2022-07-26T12:20:04.491Z,57.39
2022-07-26T12:21:06.201Z,57.39
2022-07-26T12:22:05.409Z,57.69
2022-07-26T12:23:04.432Z,57.52
2022-07-26T12:24:04.401Z,57.42
2022-07-26T12:25:04.395Z,57.22
2022-07-26T12:26:08.172Z,57.29
2022-07-26T12:27:06.373Z,57.32
2022-07-26T12:28:04.393Z,57.64
2022-07-26T12:29:04.359Z,57.32
2022-07-26T12:30:04.386Z,57.52
2022-07-26T12:31:04.363Z,57.82
2022-07-26T12:32:06.622Z,57.49
2022-07-26T12:33:05.366Z,57.69
2022-07-26T12:34:04.337Z,57.71
2022-07-26T12:35:04.315Z,57.59
2022-07-26T12:36:04.307Z,57.39
2022-07-26T12:37:04.308Z,57.29
2022-07-26T12:38:04.323Z,57.42
2022-07-26T12:39:04.295Z,58.31
2022-07-26T12:40:04.283Z,58.54
2022-07-26T12:41:04.284Z,58.71
2022-07-26T12:42:04.270Z,58.61
2022-07-26T12:43:04.289Z,59.01
2022-07-26T12:44:04.247Z,59.14
2022-07-26T12:45:04.242Z,59.74
2022-07-26T12:46:04.287Z,59.14
2022-07-26T12:47:04.232Z,58.84
2022-07-26T12:48:04.240Z,59.23
2022-07-26T12:49:04.386Z,58.57
2022-07-26T12:50:04.379Z,58.87
2022-07-26T12:51:04.201Z,59.47
2022-07-26T12:52:04.208Z,60.29